Terminal Aerodrome Forecast
Issued by NWS

Current Version | Previous Version | Text Only | Print | Product List | Glossary On
Versions: 1 2 3 4 5 6 7 8 9 10 11 12 13 14 15 16 17 18
484
FTUS41 KALY 252322
TAFPSF
TAF
KPSF 252322Z 2600/2624 29004KT P6SM SKC
     FM260200 00000KT P6SM SKC
     FM261300 15004KT P6SM FEW250
     FM261700 18009KT P6SM SCT120 BKN200=

USA.gov is the U.S. government's official web portal to all federal, state and local government web resources and services.